createdAt,value
2018-01-26T00:00:19.330Z,0.00
2018-01-26T00:02:11.352Z,0.00
2018-01-26T00:03:11.271Z,0.00
2018-01-26T00:05:03.358Z,0.00
2018-01-26T00:06:03.283Z,0.00
2018-01-26T00:07:55.391Z,0.00
2018-01-26T00:08:55.315Z,0.00
2018-01-26T00:10:48.323Z,0.00
2018-01-26T00:11:48.256Z,0.00
2018-01-26T00:13:40.340Z,0.00
2018-01-26T00:14:40.259Z,0.00
2018-01-26T00:16:32.641Z,0.00
2018-01-26T00:17:32.191Z,0.00
2018-01-26T00:19:24.212Z,0.00
2018-01-26T00:20:24.158Z,0.00
2018-01-26T00:22:16.234Z,0.00
2018-01-26T00:23:16.158Z,0.00
2018-01-26T00:25:08.189Z,0.00
2018-01-26T00:26:08.120Z,0.00
2018-01-26T00:28:00.124Z,0.00
2018-01-26T00:29:00.062Z,0.00
2018-01-26T00:30:52.073Z,0.00
2018-01-26T00:31:51.998Z,0.00
2018-01-26T00:33:44.019Z,0.00
2018-01-26T00:34:43.943Z,0.00
2018-01-26T00:36:35.986Z,0.00
2018-01-26T00:37:35.905Z,0.00
2018-01-26T00:39:27.884Z,0.00
2018-01-26T00:40:27.817Z,0.00
2018-01-26T00:42:19.926Z,0.00
2018-01-26T00:43:19.849Z,0.00
2018-01-26T00:45:11.837Z,0.00
2018-01-26T00:46:11.952Z,0.00
2018-01-26T00:48:03.767Z,0.00
2018-01-26T00:49:03.698Z,0.00
2018-01-26T00:50:56.742Z,0.00
2018-01-26T00:51:56.669Z,0.00
2018-01-26T00:53:48.682Z,0.00
2018-01-26T00:54:48.599Z,0.00
2018-01-26T00:56:41.609Z,0.00
2018-01-26T00:57:41.596Z,0.00
2018-01-26T00:59:33.538Z,0.00
2018-01-26T01:00:33.473Z,0.00
2018-01-26T01:02:25.482Z,0.00
2018-01-26T01:03:25.400Z,0.00
2018-01-26T01:05:17.464Z,0.00
2018-01-26T01:06:17.337Z,0.00
2018-01-26T01:08:09.339Z,0.00
2018-01-26T01:09:09.265Z,0.00
2018-01-26T01:11:01.255Z,0.00
2018-01-26T01:12:01.207Z,0.00
2018-01-26T01:13:53.195Z,0.00
2018-01-26T01:14:53.123Z,0.00
2018-01-26T01:16:45.133Z,0.00
2018-01-26T01:17:45.060Z,0.00
2018-01-26T01:19:38.096Z,0.00
2018-01-26T01:20:38.007Z,0.00
2018-01-26T01:22:30.202Z,0.00
2018-01-26T01:23:30.151Z,0.00
2018-01-26T01:25:23.177Z,0.00
2018-01-26T01:26:23.097Z,0.00
2018-01-26T01:28:16.130Z,0.00
2018-01-26T01:29:16.074Z,0.00
2018-01-26T01:31:08.122Z,0.00
2018-01-26T01:32:08.048Z,0.00
2018-01-26T01:34:01.088Z,0.00
2018-01-26T01:35:01.007Z,0.00
2018-01-26T01:36:52.996Z,0.00
2018-01-26T01:37:52.932Z,0.00
2018-01-26T01:39:45.131Z,0.00
2018-01-26T01:40:45.062Z,0.00
2018-01-26T01:42:38.116Z,0.00
2018-01-26T01:43:38.001Z,0.00
2018-01-26T01:45:30.152Z,0.00
2018-01-26T01:46:30.080Z,0.00
2018-01-26T01:48:22.192Z,0.00
2018-01-26T01:49:22.131Z,0.00
2018-01-26T01:51:15.149Z,0.00
2018-01-26T01:52:15.073Z,0.00
2018-01-26T01:54:08.122Z,0.00
2018-01-26T01:55:08.024Z,0.00
2018-01-26T01:57:01.023Z,0.00
2018-01-26T01:58:00.963Z,0.00
2018-01-26T01:59:52.980Z,0.00
2018-01-26T02:00:52.886Z,0.00
2018-01-26T02:02:45.895Z,0.00
2018-01-26T02:03:45.827Z,0.00
2018-01-26T02:05:37.843Z,0.00
2018-01-26T02:06:37.764Z,0.00
2018-01-26T02:08:29.824Z,0.00
2018-01-26T02:09:29.735Z,0.00
2018-01-26T02:11:22.763Z,0.00
2018-01-26T02:12:22.682Z,0.00
2018-01-26T02:14:14.686Z,0.00
2018-01-26T02:15:14.617Z,0.00
2018-01-26T02:17:06.616Z,0.00
2018-01-26T02:18:06.541Z,0.00
2018-01-26T02:19:58.608Z,0.00
2018-01-26T02:20:58.583Z,0.00
2018-01-26T02:22:50.549Z,0.00
2018-01-26T02:23:50.475Z,0.00
2018-01-26T02:25:42.513Z,0.00
2018-01-26T02:26:42.433Z,0.00
2018-01-26T02:28:34.440Z,0.00
2018-01-26T02:29:34.354Z,0.00
2018-01-26T02:31:26.365Z,0.00
2018-01-26T02:32:26.290Z,0.00
2018-01-26T02:34:18.285Z,0.00
2018-01-26T02:35:18.214Z,0.00
2018-01-26T02:37:10.242Z,0.00
2018-01-26T02:38:10.160Z,0.00
2018-01-26T02:40:03.167Z,0.00
2018-01-26T02:41:03.104Z,0.00
2018-01-26T02:42:55.383Z,0.00
2018-01-26T02:43:55.236Z,0.00
2018-01-26T02:45:47.402Z,0.00
2018-01-26T02:46:47.333Z,0.00
2018-01-26T02:48:39.433Z,0.00
2018-01-26T02:49:39.361Z,0.00
2018-01-26T02:51:32.370Z,0.00
2018-01-26T02:52:32.342Z,0.00
2018-01-26T02:54:24.481Z,0.00
2018-01-26T02:55:24.399Z,0.00
2018-01-26T02:57:16.473Z,0.00
2018-01-26T02:58:16.374Z,0.00
2018-01-26T03:00:08.546Z,0.00
2018-01-26T03:01:08.460Z,0.00
2018-01-26T03:03:00.648Z,0.00
2018-01-26T03:04:00.585Z,0.00
2018-01-26T03:05:52.543Z,0.00
2018-01-26T03:06:52.522Z,0.00
2018-01-26T03:08:44.619Z,0.00
2018-01-26T03:09:44.554Z,0.00
2018-01-26T03:11:36.626Z,0.00
2018-01-26T03:12:36.622Z,0.00
2018-01-26T03:14:29.880Z,0.00
2018-01-26T03:15:29.505Z,0.00
2018-01-26T03:17:21.547Z,0.00
2018-01-26T03:18:21.519Z,0.00
2018-01-26T03:20:14.476Z,0.00
2018-01-26T03:21:14.396Z,0.00
2018-01-26T03:23:06.412Z,0.00
2018-01-26T03:24:06.343Z,0.00
2018-01-26T03:25:58.433Z,0.00
2018-01-26T03:26:58.354Z,0.00
2018-01-26T03:28:50.380Z,0.00
2018-01-26T03:29:50.275Z,0.00
2018-01-26T03:31:42.279Z,0.00
2018-01-26T03:32:42.195Z,0.00
2018-01-26T03:34:34.211Z,0.00
2018-01-26T03:35:34.124Z,0.00
2018-01-26T03:37:27.137Z,0.00
2018-01-26T03:38:27.059Z,0.00
2018-01-26T03:40:20.079Z,0.00
2018-01-26T03:41:20.009Z,0.00
2018-01-26T03:43:12.258Z,0.00
2018-01-26T03:44:12.190Z,0.00
2018-01-26T03:46:05.258Z,0.00
2018-01-26T03:47:05.184Z,0.00
2018-01-26T03:48:58.189Z,0.00
2018-01-26T03:49:58.123Z,0.00
2018-01-26T03:51:51.158Z,0.00
2018-01-26T03:52:51.080Z,0.00
2018-01-26T03:54:44.079Z,0.00
2018-01-26T03:55:44.020Z,0.00
2018-01-26T03:57:36.135Z,0.00
2018-01-26T03:58:36.057Z,0.00
2018-01-26T04:00:29.124Z,0.00
2018-01-26T04:01:29.042Z,0.00
2018-01-26T04:03:21.231Z,0.00
2018-01-26T04:04:21.160Z,0.00
2018-01-26T04:06:13.169Z,0.00
2018-01-26T04:07:13.093Z,0.00
2018-01-26T04:09:05.139Z,0.00
2018-01-26T04:10:05.079Z,0.00
2018-01-26T04:11:57.078Z,0.00
2018-01-26T04:12:57.006Z,0.00
2018-01-26T04:14:49.002Z,0.00
2018-01-26T04:15:49.002Z,0.00
2018-01-26T04:17:41.077Z,0.00
2018-01-26T04:18:41.001Z,0.00
2018-01-26T04:20:33.070Z,0.00
2018-01-26T04:21:33.004Z,0.00
2018-01-26T04:23:25.009Z,0.00
2018-01-26T04:24:24.930Z,0.00
2018-01-26T04:26:16.987Z,0.00
2018-01-26T04:27:16.907Z,0.00
2018-01-26T04:29:08.995Z,0.00
2018-01-26T04:30:08.992Z,0.00
2018-01-26T04:32:01.076Z,0.00
2018-01-26T04:33:00.947Z,0.00
2018-01-26T04:34:52.999Z,0.00
2018-01-26T04:35:52.920Z,0.00
2018-01-26T04:37:45.892Z,0.00
2018-01-26T04:38:45.909Z,0.00
2018-01-26T04:40:38.932Z,0.00
2018-01-26T04:41:38.859Z,0.00
2018-01-26T04:43:32.722Z,0.00
2018-01-26T04:44:32.642Z,0.00
2018-01-26T04:46:25.649Z,0.00
2018-01-26T04:47:25.580Z,0.00
2018-01-26T04:49:18.613Z,0.00
2018-01-26T04:50:18.519Z,0.00
2018-01-26T04:52:10.600Z,0.00
2018-01-26T04:53:10.537Z,0.00
2018-01-26T04:55:02.597Z,0.00
2018-01-26T04:56:02.524Z,0.00
2018-01-26T04:57:55.546Z,0.00
2018-01-26T04:58:55.451Z,0.00
2018-01-26T05:00:47.492Z,0.00
2018-01-26T05:01:47.436Z,0.00
2018-01-26T05:03:39.522Z,0.00
2018-01-26T05:04:39.436Z,0.00
2018-01-26T05:06:31.544Z,0.00
2018-01-26T05:07:31.491Z,0.00
2018-01-26T05:09:23.520Z,0.00
2018-01-26T05:10:23.434Z,0.00
2018-01-26T05:12:15.565Z,0.00
2018-01-26T05:13:15.495Z,0.00
2018-01-26T05:15:07.549Z,0.00
2018-01-26T05:16:07.467Z,0.00
2018-01-26T05:18:00.482Z,0.00
2018-01-26T05:19:00.406Z,0.00
2018-01-26T05:20:53.431Z,0.00
2018-01-26T05:21:53.380Z,0.00
2018-01-26T05:23:45.370Z,0.00
2018-01-26T05:24:45.306Z,0.00
2018-01-26T05:26:37.313Z,0.00
2018-01-26T05:27:37.227Z,0.00
2018-01-26T05:29:29.252Z,0.00
2018-01-26T05:30:29.153Z,0.00
2018-01-26T05:32:21.182Z,0.00
2018-01-26T05:33:21.116Z,0.00
2018-01-26T05:35:13.128Z,0.00
2018-01-26T05:36:13.050Z,0.00
2018-01-26T05:38:05.226Z,0.00
2018-01-26T05:39:05.154Z,0.00
2018-01-26T05:40:57.286Z,0.00
2018-01-26T05:41:57.215Z,0.00
2018-01-26T05:43:49.401Z,0.00
2018-01-26T05:44:49.340Z,0.00
2018-01-26T05:46:41.361Z,0.00
2018-01-26T05:47:41.308Z,0.00
2018-01-26T05:49:34.280Z,0.00
2018-01-26T05:50:34.237Z,0.00
2018-01-26T05:52:26.216Z,0.00
2018-01-26T05:53:26.131Z,0.00
2018-01-26T05:55:18.133Z,0.00
2018-01-26T05:56:18.066Z,0.00
2018-01-26T05:58:10.271Z,0.00
2018-01-26T05:59:10.197Z,0.00
2018-01-26T06:01:02.225Z,0.00
2018-01-26T06:02:02.139Z,0.00
2018-01-26T06:03:54.279Z,0.00
2018-01-26T06:04:54.218Z,0.00
2018-01-26T06:06:46.310Z,0.00
2018-01-26T06:07:46.209Z,0.00
2018-01-26T06:09:38.257Z,0.00
2018-01-26T06:10:38.226Z,0.00
2018-01-26T06:12:30.335Z,0.00
2018-01-26T06:13:30.256Z,0.00
2018-01-26T06:15:22.270Z,0.00
2018-01-26T06:16:22.204Z,0.00
2018-01-26T06:18:14.218Z,0.00
2018-01-26T06:19:14.158Z,0.00
2018-01-26T06:21:06.146Z,0.00
2018-01-26T06:22:06.081Z,0.00
2018-01-26T06:23:58.149Z,0.00
2018-01-26T06:24:58.071Z,0.00
2018-01-26T06:26:51.078Z,0.00
2018-01-26T06:27:51.008Z,0.00
2018-01-26T06:29:44.031Z,0.00
2018-01-26T06:30:43.954Z,0.00
2018-01-26T06:32:35.971Z,0.00
2018-01-26T06:33:35.890Z,0.00
2018-01-26T06:35:29.275Z,0.00
2018-01-26T06:36:28.837Z,0.00
2018-01-26T06:38:21.272Z,0.00
2018-01-26T06:39:20.933Z,0.00
2018-01-26T06:41:13.935Z,0.00
2018-01-26T06:42:13.876Z,0.00
2018-01-26T06:44:06.899Z,0.00
2018-01-26T06:45:06.821Z,0.00
2018-01-26T06:47:00.719Z,0.00
2018-01-26T06:48:00.602Z,0.00
2018-01-26T06:49:52.812Z,0.00
2018-01-26T06:50:52.719Z,0.00
2018-01-26T06:52:44.904Z,0.00
2018-01-26T06:53:44.838Z,0.00
2018-01-26T06:55:37.165Z,0.00
2018-01-26T06:56:36.976Z,0.00
2018-01-26T06:58:30.040Z,0.00
2018-01-26T06:59:29.954Z,0.00
2018-01-26T07:01:22.966Z,0.00
2018-01-26T07:02:22.894Z,0.00
2018-01-26T07:04:16.285Z,0.00
2018-01-26T07:05:15.852Z,0.00
2018-01-26T07:07:09.102Z,0.00
2018-01-26T07:08:09.039Z,0.00
2018-01-26T07:10:02.058Z,0.00
2018-01-26T07:11:01.975Z,0.00
2018-01-26T07:12:54.989Z,0.00
2018-01-26T07:13:54.933Z,0.00
2018-01-26T07:15:47.063Z,0.00
2018-01-26T07:16:46.964Z,0.00
2018-01-26T07:18:39.989Z,0.00
2018-01-26T07:19:39.918Z,0.00
2018-01-26T07:21:32.947Z,0.00
2018-01-26T07:22:32.902Z,0.00
2018-01-26T07:24:25.918Z,0.00
2018-01-26T07:25:25.846Z,0.00
2018-01-26T07:27:18.845Z,5.63
2018-01-26T07:28:18.783Z,5.63
2018-01-26T07:30:11.789Z,5.63
2018-01-26T07:31:11.716Z,5.63
2018-01-26T07:33:03.772Z,11.25
2018-01-26T07:34:03.700Z,11.25
2018-01-26T07:35:55.740Z,11.25
2018-01-26T07:36:55.621Z,11.25
2018-01-26T07:38:48.614Z,11.25
2018-01-26T07:39:48.547Z,11.25
2018-01-26T07:41:41.570Z,11.25
2018-01-26T07:42:41.497Z,11.25
2018-01-26T07:44:33.686Z,11.25
2018-01-26T07:45:33.605Z,11.25
2018-01-26T07:47:25.760Z,16.88
2018-01-26T07:48:25.686Z,16.88
2018-01-26T07:50:17.748Z,16.88
2018-01-26T07:51:17.685Z,16.88
2018-01-26T07:53:09.693Z,11.25
2018-01-26T07:54:09.631Z,11.25
2018-01-26T07:56:01.654Z,11.25
2018-01-26T07:57:01.579Z,11.25
2018-01-26T07:58:54.587Z,11.25
2018-01-26T07:59:54.520Z,16.88
2018-01-26T08:01:46.734Z,16.88
2018-01-26T08:02:46.659Z,16.88
2018-01-26T08:04:39.660Z,16.88
2018-01-26T08:05:39.597Z,16.88
2018-01-26T08:07:31.624Z,22.50
2018-01-26T08:08:31.548Z,22.50
2018-01-26T08:10:23.627Z,22.50
2018-01-26T08:11:23.524Z,22.50
2018-01-26T08:13:16.537Z,22.50
2018-01-26T08:14:16.503Z,16.88
2018-01-26T08:16:08.531Z,16.88
2018-01-26T08:17:08.457Z,16.88
2018-01-26T08:19:01.451Z,16.88
2018-01-26T08:20:01.387Z,16.88
2018-01-26T08:21:54.407Z,16.88
2018-01-26T08:22:54.314Z,22.50
2018-01-26T08:24:46.378Z,22.50
2018-01-26T08:25:46.303Z,22.50
2018-01-26T08:27:38.383Z,22.50
2018-01-26T08:28:38.305Z,22.50
2018-01-26T08:30:31.307Z,22.50
2018-01-26T08:31:31.234Z,22.50
2018-01-26T08:33:23.435Z,22.50
2018-01-26T08:34:23.341Z,22.50
2018-01-26T08:36:16.362Z,16.88
2018-01-26T08:37:16.295Z,16.88
2018-01-26T08:39:08.306Z,16.88
2018-01-26T08:40:08.228Z,16.88
2018-01-26T08:42:01.436Z,16.88
2018-01-26T08:43:01.290Z,16.88
2018-01-26T08:44:54.337Z,16.88
2018-01-26T08:45:54.233Z,22.50
2018-01-26T08:47:46.307Z,22.50
2018-01-26T08:48:46.206Z,22.50
2018-01-26T08:50:38.265Z,22.50
2018-01-26T08:51:38.200Z,22.50
2018-01-26T08:53:30.329Z,22.50
2018-01-26T08:54:30.237Z,22.50
2018-01-26T08:56:22.198Z,28.13
2018-01-26T08:57:22.131Z,28.13
2018-01-26T08:59:14.296Z,28.13
2018-01-26T09:00:14.217Z,28.13
2018-01-26T09:02:07.320Z,33.75
2018-01-26T09:03:07.252Z,33.75
2018-01-26T09:04:59.323Z,33.75
2018-01-26T09:05:59.241Z,33.75
2018-01-26T09:07:52.262Z,39.38
2018-01-26T09:08:52.179Z,39.38
2018-01-26T09:10:44.227Z,39.38
2018-01-26T09:11:44.136Z,33.75
2018-01-26T09:13:37.148Z,33.75
2018-01-26T09:14:37.078Z,33.75
2018-01-26T09:16:29.294Z,33.75
2018-01-26T09:17:29.204Z,33.75
2018-01-26T09:19:21.418Z,33.75
2018-01-26T09:20:21.339Z,33.75
2018-01-26T09:22:14.348Z,33.75
2018-01-26T09:23:14.277Z,33.75
2018-01-26T09:25:06.351Z,33.75
2018-01-26T09:26:06.278Z,33.75
2018-01-26T09:27:58.273Z,33.75
2018-01-26T09:28:58.208Z,33.75
2018-01-26T09:30:50.247Z,33.75
2018-01-26T09:31:50.167Z,33.75
2018-01-26T09:33:43.185Z,39.38
2018-01-26T09:34:43.095Z,39.38
2018-01-26T09:36:35.114Z,39.38
2018-01-26T09:37:35.031Z,45.00
2018-01-26T09:39:27.088Z,45.00
2018-01-26T09:40:27.021Z,45.00
2018-01-26T09:42:20.140Z,45.00
2018-01-26T09:43:20.009Z,45.00
2018-01-26T09:45:12.013Z,45.00
2018-01-26T09:46:11.950Z,45.00
2018-01-26T09:48:03.939Z,50.63
2018-01-26T09:49:03.868Z,50.63
2018-01-26T09:50:55.954Z,50.63
2018-01-26T09:51:55.870Z,50.63
2018-01-26T09:53:47.922Z,50.63
2018-01-26T09:54:47.854Z,56.25
2018-01-26T09:56:39.866Z,56.25
2018-01-26T09:57:39.772Z,61.88
2018-01-26T09:59:31.941Z,67.50
2018-01-26T10:00:31.909Z,67.50
2018-01-26T10:02:23.915Z,73.13
2018-01-26T10:03:23.863Z,73.13
2018-01-26T10:05:16.946Z,84.38
2018-01-26T10:06:16.855Z,84.38
2018-01-26T10:08:08.984Z,90.00
2018-01-26T10:09:08.852Z,95.63
2018-01-26T10:11:00.865Z,95.63
2018-01-26T10:12:00.795Z,95.63
2018-01-26T10:13:52.843Z,101.25
2018-01-26T10:14:52.791Z,106.88
2018-01-26T10:16:44.785Z,112.50
2018-01-26T10:17:44.704Z,112.50
2018-01-26T10:19:37.732Z,112.50
2018-01-26T10:20:37.644Z,112.50
2018-01-26T10:22:29.990Z,101.25
2018-01-26T10:23:29.630Z,95.63
2018-01-26T10:25:21.629Z,90.00
2018-01-26T10:26:21.569Z,90.00
2018-01-26T10:28:13.573Z,95.63
2018-01-26T10:29:13.491Z,90.00
2018-01-26T10:31:05.514Z,84.38
2018-01-26T10:32:05.444Z,90.00
2018-01-26T10:33:58.514Z,95.63
2018-01-26T10:34:58.437Z,101.25
2018-01-26T10:36:50.549Z,95.63
2018-01-26T10:37:50.471Z,84.38
2018-01-26T10:39:42.610Z,78.75
2018-01-26T10:40:42.503Z,78.75
2018-01-26T10:42:34.558Z,73.13
2018-01-26T10:43:34.505Z,73.13
2018-01-26T10:45:26.555Z,84.38
2018-01-26T10:46:26.470Z,90.00
2018-01-26T10:48:18.583Z,106.88
2018-01-26T10:49:18.511Z,112.50
2018-01-26T10:51:11.569Z,106.88
2018-01-26T10:52:11.498Z,101.25
2018-01-26T10:54:03.660Z,101.25
2018-01-26T10:55:03.619Z,106.88
2018-01-26T10:56:55.614Z,123.75
2018-01-26T10:57:55.526Z,118.13
2018-01-26T10:59:48.589Z,90.00
2018-01-26T11:00:48.519Z,78.75
2018-01-26T11:02:41.591Z,78.75
2018-01-26T11:03:41.535Z,84.38
2018-01-26T11:05:33.574Z,90.00
2018-01-26T11:06:33.536Z,84.38
2018-01-26T11:08:26.532Z,101.25
2018-01-26T11:09:26.469Z,106.88
2018-01-26T11:11:18.491Z,118.13
2018-01-26T11:12:18.435Z,106.88
2018-01-26T11:14:10.535Z,90.00
2018-01-26T11:15:10.407Z,84.38
2018-01-26T11:17:02.369Z,84.38
2018-01-26T11:18:02.294Z,90.00
2018-01-26T11:19:54.340Z,84.38
2018-01-26T11:20:54.276Z,78.75
2018-01-26T11:22:46.261Z,78.75
2018-01-26T11:23:46.181Z,95.63
2018-01-26T11:25:38.241Z,95.63
2018-01-26T11:26:38.188Z,106.88
2018-01-26T11:28:30.119Z,106.88
2018-01-26T11:29:30.051Z,112.50
2018-01-26T11:31:22.095Z,106.88
2018-01-26T11:32:22.016Z,106.88
2018-01-26T11:34:14.055Z,112.50
2018-01-26T11:35:14.006Z,118.13
2018-01-26T11:37:05.970Z,112.50
2018-01-26T11:38:05.900Z,118.13
2018-01-26T11:39:58.018Z,112.50
2018-01-26T11:40:57.900Z,112.50
2018-01-26T11:42:49.972Z,146.25
2018-01-26T11:43:49.906Z,157.50
2018-01-26T11:45:41.883Z,135.00
2018-01-26T11:46:41.816Z,135.00
2018-01-26T11:48:33.908Z,123.75
2018-01-26T11:49:33.805Z,135.00
2018-01-26T11:51:25.832Z,135.00
2018-01-26T11:52:25.761Z,146.25
2018-01-26T11:54:17.776Z,146.25
2018-01-26T11:55:17.694Z,135.00
2018-01-26T11:57:09.771Z,151.88
2018-01-26T11:58:09.760Z,157.50
2018-01-26T12:00:01.676Z,157.50
2018-01-26T12:01:01.604Z,140.63
2018-01-26T12:02:53.684Z,157.50
2018-01-26T12:03:53.531Z,157.50
2018-01-26T12:05:46.038Z,151.88
2018-01-26T12:06:45.975Z,151.88
2018-01-26T12:08:38.009Z,140.63
2018-01-26T12:09:37.934Z,140.63
2018-01-26T12:11:29.923Z,123.75
2018-01-26T12:12:29.850Z,118.13
2018-01-26T12:14:21.888Z,112.50
2018-01-26T12:15:21.807Z,106.88
2018-01-26T12:17:13.857Z,101.25
2018-01-26T12:18:13.771Z,95.63
2018-01-26T12:20:05.825Z,123.75
2018-01-26T12:21:05.743Z,123.75
2018-01-26T12:22:57.740Z,129.38
2018-01-26T12:23:57.647Z,118.13
2018-01-26T12:25:49.652Z,106.88
2018-01-26T12:26:49.576Z,101.25
2018-01-26T12:28:41.732Z,101.25
2018-01-26T12:29:41.641Z,106.88
2018-01-26T12:31:33.649Z,118.13
2018-01-26T12:32:33.595Z,123.75
2018-01-26T12:34:25.614Z,123.75
2018-01-26T12:35:25.587Z,129.38
2018-01-26T12:37:17.573Z,129.38
2018-01-26T12:38:17.513Z,118.13
2018-01-26T12:40:09.540Z,123.75
2018-01-26T12:41:09.451Z,140.63
2018-01-26T12:43:01.465Z,151.88
2018-01-26T12:44:01.387Z,135.00
2018-01-26T12:45:53.472Z,140.63
2018-01-26T12:46:53.425Z,146.25
2018-01-26T12:48:45.401Z,129.38
2018-01-26T12:49:45.319Z,118.13
2018-01-26T12:51:37.335Z,123.75
2018-01-26T12:52:37.266Z,129.38
2018-01-26T12:54:29.287Z,106.88
2018-01-26T12:55:29.219Z,84.38
2018-01-26T12:57:21.195Z,84.38
2018-01-26T12:58:21.113Z,90.00
2018-01-26T13:00:13.173Z,84.38
2018-01-26T13:01:13.062Z,90.00
2018-01-26T13:03:05.116Z,106.88
2018-01-26T13:04:05.045Z,101.25
2018-01-26T13:05:57.094Z,106.88
2018-01-26T13:06:57.025Z,123.75
2018-01-26T13:08:49.038Z,123.75
2018-01-26T13:09:48.964Z,129.38
2018-01-26T13:11:41.011Z,123.75
2018-01-26T13:12:40.934Z,123.75
2018-01-26T13:14:32.963Z,123.75
2018-01-26T13:15:32.917Z,118.13
2018-01-26T13:17:24.871Z,118.13
2018-01-26T13:18:24.791Z,118.13
2018-01-26T13:20:16.830Z,95.63
2018-01-26T13:21:16.742Z,84.38
2018-01-26T13:23:08.772Z,67.50
2018-01-26T13:24:08.670Z,56.25
2018-01-26T13:26:00.682Z,50.63
2018-01-26T13:27:00.601Z,56.25
2018-01-26T13:28:52.621Z,61.88
2018-01-26T13:29:52.572Z,67.50
2018-01-26T13:31:44.583Z,61.88
2018-01-26T13:32:44.500Z,61.88
2018-01-26T13:34:36.489Z,73.13
2018-01-26T13:35:36.458Z,78.75
2018-01-26T13:37:28.457Z,95.63
2018-01-26T13:38:28.434Z,101.25
2018-01-26T13:40:20.394Z,106.88
2018-01-26T13:41:20.316Z,106.88
2018-01-26T13:43:12.330Z,112.50
2018-01-26T13:44:12.242Z,112.50
2018-01-26T13:46:04.281Z,123.75
2018-01-26T13:47:04.207Z,135.00
2018-01-26T13:48:56.254Z,140.63
2018-01-26T13:49:56.204Z,151.88
2018-01-26T13:51:48.208Z,157.50
2018-01-26T13:52:48.115Z,157.50
2018-01-26T13:54:40.105Z,146.25
2018-01-26T13:55:40.008Z,135.00
2018-01-26T13:57:32.009Z,118.13
2018-01-26T13:58:31.941Z,118.13
2018-01-26T14:00:23.989Z,112.50
2018-01-26T14:01:23.887Z,106.88
2018-01-26T14:03:15.915Z,101.25
2018-01-26T14:04:15.894Z,95.63
2018-01-26T14:06:07.870Z,84.38
2018-01-26T14:07:07.857Z,84.38
2018-01-26T14:08:59.872Z,95.63
2018-01-26T14:09:59.739Z,95.63
2018-01-26T14:11:51.774Z,90.00
2018-01-26T14:12:51.679Z,90.00
2018-01-26T14:14:43.738Z,84.38
2018-01-26T14:15:43.709Z,73.13
2018-01-26T14:17:35.748Z,67.50
2018-01-26T14:18:35.648Z,67.50
2018-01-26T14:20:27.739Z,67.50
2018-01-26T14:21:27.664Z,67.50
2018-01-26T14:23:19.840Z,61.88
2018-01-26T14:24:19.601Z,56.25
2018-01-26T14:26:11.781Z,56.25
2018-01-26T14:27:11.595Z,67.50
2018-01-26T14:29:03.722Z,95.63
2018-01-26T14:30:03.659Z,101.25
2018-01-26T14:31:55.690Z,101.25
2018-01-26T14:32:55.580Z,106.88
2018-01-26T14:34:47.623Z,106.88
2018-01-26T14:35:47.573Z,90.00
2018-01-26T14:37:39.628Z,73.13
2018-01-26T14:38:39.608Z,84.38
2018-01-26T14:40:31.586Z,73.13
2018-01-26T14:41:31.508Z,61.88
2018-01-26T14:43:24.521Z,39.38
2018-01-26T14:44:24.449Z,28.13
2018-01-26T14:46:16.477Z,16.88
2018-01-26T14:47:16.420Z,16.88
2018-01-26T14:49:08.477Z,16.88
2018-01-26T14:50:08.370Z,22.50
2018-01-26T14:52:00.402Z,28.13
2018-01-26T14:53:00.299Z,33.75
2018-01-26T14:54:52.362Z,45.00
2018-01-26T14:55:52.299Z,50.63
2018-01-26T14:57:44.232Z,50.63
2018-01-26T14:58:44.183Z,50.63
2018-01-26T15:00:36.600Z,45.00
2018-01-26T15:01:36.153Z,45.00
2018-01-26T15:03:28.318Z,39.38
2018-01-26T15:04:28.105Z,39.38
2018-01-26T15:06:20.182Z,33.75
2018-01-26T15:07:20.036Z,33.75
2018-01-26T15:09:12.128Z,28.13
2018-01-26T15:10:12.015Z,22.50
2018-01-26T15:12:04.172Z,22.50
2018-01-26T15:13:04.114Z,22.50
2018-01-26T15:14:56.209Z,16.88
2018-01-26T15:15:56.157Z,16.88
2018-01-26T15:17:48.330Z,11.25
2018-01-26T15:18:48.187Z,11.25
2018-01-26T15:20:40.176Z,11.25
2018-01-26T15:21:40.065Z,11.25
2018-01-26T15:23:32.101Z,11.25
2018-01-26T15:24:32.048Z,5.63
2018-01-26T15:26:24.056Z,5.63
2018-01-26T15:27:23.988Z,5.63
2018-01-26T15:29:16.029Z,5.63
2018-01-26T15:30:15.916Z,5.63
2018-01-26T15:32:07.936Z,5.63
2018-01-26T15:33:07.863Z,5.63
2018-01-26T15:34:59.877Z,5.63
2018-01-26T15:35:59.805Z,0.00
2018-01-26T15:37:51.943Z,0.00
2018-01-26T15:38:51.832Z,0.00
2018-01-26T15:40:43.849Z,0.00
2018-01-26T15:41:43.790Z,0.00
2018-01-26T15:43:35.866Z,0.00
2018-01-26T15:44:35.710Z,0.00
2018-01-26T15:46:27.825Z,0.00
2018-01-26T15:47:27.736Z,0.00
2018-01-26T15:49:20.261Z,0.00
2018-01-26T15:50:20.280Z,0.00
2018-01-26T15:52:12.221Z,0.00
2018-01-26T15:53:12.142Z,0.00
2018-01-26T15:55:04.172Z,0.00
2018-01-26T15:56:04.086Z,0.00
2018-01-26T15:57:57.130Z,0.00
2018-01-26T15:58:57.060Z,0.00
2018-01-26T16:00:49.121Z,0.00
2018-01-26T16:01:49.069Z,0.00
2018-01-26T16:03:41.061Z,0.00
2018-01-26T16:04:40.980Z,0.00
2018-01-26T16:06:32.971Z,0.00
2018-01-26T16:07:32.956Z,0.00
2018-01-26T16:09:24.909Z,0.00
2018-01-26T16:10:24.825Z,0.00
2018-01-26T16:12:17.007Z,0.00
2018-01-26T16:13:16.836Z,0.00
2018-01-26T16:15:08.877Z,0.00
2018-01-26T16:16:08.856Z,0.00
2018-01-26T16:18:00.818Z,0.00
2018-01-26T16:19:00.731Z,0.00
2018-01-26T16:20:52.753Z,0.00
2018-01-26T16:21:52.688Z,0.00
2018-01-26T16:23:44.710Z,0.00
2018-01-26T16:24:44.654Z,0.00
2018-01-26T16:26:36.758Z,0.00
2018-01-26T16:27:36.559Z,0.00
2018-01-26T16:29:28.612Z,0.00
2018-01-26T16:30:28.515Z,0.00
2018-01-26T16:32:20.538Z,0.00
2018-01-26T16:33:20.462Z,0.00
2018-01-26T16:35:12.847Z,0.00
2018-01-26T16:36:12.426Z,0.00
2018-01-26T16:38:04.482Z,0.00
2018-01-26T16:39:04.361Z,0.00
2018-01-26T16:40:56.479Z,0.00
2018-01-26T16:41:56.396Z,0.00
2018-01-26T16:43:48.446Z,0.00
2018-01-26T16:44:48.359Z,0.00
2018-01-26T16:46:40.406Z,0.00
2018-01-26T16:47:40.318Z,0.00
2018-01-26T16:49:32.416Z,0.00
2018-01-26T16:50:32.353Z,0.00
2018-01-26T16:52:24.403Z,0.00
2018-01-26T16:53:24.337Z,0.00
2018-01-26T16:55:16.336Z,0.00
2018-01-26T16:56:16.251Z,0.00
2018-01-26T16:58:08.250Z,0.00
2018-01-26T16:59:08.186Z,0.00
2018-01-26T17:01:00.369Z,0.00
2018-01-26T17:02:00.161Z,0.00
2018-01-26T17:03:52.223Z,0.00
2018-01-26T17:04:52.230Z,0.00
2018-01-26T17:06:44.158Z,0.00
2018-01-26T17:07:44.147Z,0.00
2018-01-26T17:09:36.112Z,0.00
2018-01-26T17:10:36.024Z,0.00
2018-01-26T17:12:28.063Z,0.00
2018-01-26T17:13:27.964Z,0.00
2018-01-26T17:15:19.964Z,0.00
2018-01-26T17:16:19.932Z,0.00
2018-01-26T17:18:11.925Z,0.00
2018-01-26T17:19:11.874Z,0.00
2018-01-26T17:21:03.922Z,0.00
2018-01-26T17:22:03.828Z,0.00
2018-01-26T17:23:55.886Z,0.00
2018-01-26T17:24:55.819Z,0.00
2018-01-26T17:26:47.807Z,0.00
2018-01-26T17:27:47.743Z,0.00
2018-01-26T17:29:39.740Z,0.00
2018-01-26T17:30:39.681Z,0.00
2018-01-26T17:32:31.718Z,0.00
2018-01-26T17:33:31.611Z,0.00
2018-01-26T17:35:23.609Z,0.00
2018-01-26T17:36:23.536Z,0.00
2018-01-26T17:38:15.549Z,0.00
2018-01-26T17:39:15.465Z,0.00
2018-01-26T17:41:07.481Z,0.00
2018-01-26T17:42:07.414Z,0.00
2018-01-26T17:43:59.413Z,0.00
2018-01-26T17:44:59.420Z,0.00
2018-01-26T17:46:51.402Z,0.00
2018-01-26T17:47:51.287Z,0.00
2018-01-26T17:49:43.306Z,0.00
2018-01-26T17:50:43.224Z,0.00
2018-01-26T17:52:35.233Z,0.00
2018-01-26T17:53:35.184Z,0.00
2018-01-26T17:55:27.290Z,0.00
2018-01-26T17:56:27.192Z,0.00
2018-01-26T17:58:19.204Z,0.00
2018-01-26T17:59:19.147Z,0.00
2018-01-26T18:01:11.165Z,0.00
2018-01-26T18:02:11.129Z,0.00
2018-01-26T18:04:03.134Z,0.00
2018-01-26T18:05:03.042Z,0.00
2018-01-26T18:06:55.043Z,0.00
2018-01-26T18:07:54.963Z,0.00
2018-01-26T18:09:47.008Z,0.00
2018-01-26T18:10:46.910Z,0.00
2018-01-26T18:12:38.965Z,0.00
2018-01-26T18:13:38.914Z,0.00
2018-01-26T18:15:31.286Z,0.00
2018-01-26T18:16:30.853Z,0.00
2018-01-26T18:18:22.873Z,0.00
2018-01-26T18:19:22.793Z,0.00
2018-01-26T18:21:14.969Z,0.00
2018-01-26T18:22:14.862Z,0.00
2018-01-26T18:24:06.764Z,0.00
2018-01-26T18:25:06.689Z,0.00
2018-01-26T18:26:58.701Z,0.00
2018-01-26T18:27:58.675Z,0.00
2018-01-26T18:29:50.702Z,0.00
2018-01-26T18:30:50.628Z,0.00
2018-01-26T18:32:42.586Z,0.00
2018-01-26T18:33:42.478Z,0.00
2018-01-26T18:35:34.495Z,0.00
2018-01-26T18:36:34.412Z,0.00
2018-01-26T18:38:26.408Z,0.00
2018-01-26T18:39:26.417Z,0.00
2018-01-26T18:41:18.604Z,0.00
2018-01-26T18:42:18.540Z,0.00
2018-01-26T18:44:10.556Z,0.00